Time;durP1;ratioP1;P1;durP2;ratioP2;P2;SDS_P1;SDS_P2;PMS_P1;PMS_P2;Temp;Humidity;BMP_temperature;BMP_pressure;BME280_temperature;BME280_humidity;BME280_pressure;Samples;Min_cycle;Max_cycle;Signal;HPM_P1;HPM_P2
2022/11/18 00:00:00;;;;;;;12.52;10.48;;;;;;;5.86;73.03;99084.38;685010;28;1058;-80
2022/11/18 00:00:21;;;;;;;11.90;10.60;;;;;;;5.88;73.05;99093.06;686412;28;1310;-80
2022/11/18 00:00:42;;;;;;;11.65;10.45;;;;;;;5.92;72.73;99096.56;682820;28;1272;-80
2022/11/18 00:01:11;;;;;;;11.73;10.43;;;;;;;5.93;72.81;99100.91;682644;29;1105;-81
2022/11/18 00:01:32;;;;;;;12.68;10.50;;;;;;;5.83;72.84;99088.63;687659;28;1426;-80
2022/11/18 00:01:52;;;;;;;11.85;10.10;;;;;;;5.81;72.63;99095.47;687931;28;1483;-80
2022/11/18 00:02:13;;;;;;;10.57;9.48;;;;;;;5.83;72.83;99093.81;688027;28;1198;-80
2022/11/18 00:02:34;;;;;;;10.87;9.70;;;;;;;5.81;72.88;99096.34;691090;28;781;-80
2022/11/18 00:02:54;;;;;;;10.55;9.45;;;;;;;5.83;72.98;99093.81;687880;28;1346;-80
2022/11/18 00:03:15;;;;;;;11.57;9.95;;;;;;;5.83;72.81;99104.16;688214;28;1511;-80
2022/11/18 00:03:37;;;;;;;11.43;10.18;;;;;;;5.78;72.84;99092.81;688143;28;835;-80
2022/11/18 00:03:57;;;;;;;13.30;10.82;;;;;;;5.79;73.20;99099.75;685326;28;1006;-80
2022/11/18 00:04:18;;;;;;;13.50;10.63;;;;;;;5.78;72.99;99101.47;688628;28;1323;-80
2022/11/18 00:04:39;;;;;;;13.68;10.77;;;;;;;5.82;72.80;99108.44;688784;28;1320;-80
2022/11/18 00:04:59;;;;;;;11.93;10.30;;;;;;;5.80;73.16;99106.66;684741;28;1126;-80
2022/11/18 00:05:20;;;;;;;12.00;10.40;;;;;;;5.83;73.09;99109.34;687309;28;1170;-80
2022/11/18 00:05:40;;;;;;;12.80;10.50;;;;;;;5.84;73.08;99116.25;688223;28;845;-81
2022/11/18 00:06:01;;;;;;;13.50;10.77;;;;;;;5.78;72.95;99100.59;688355;28;1035;-80
2022/11/18 00:06:24;;;;;;;12.60;10.93;;;;;;;5.79;72.84;99102.34;690213;28;1393;-80
2022/11/18 00:07:00;;;;;;;12.00;10.27;;;;;;;5.76;73.05;99095.38;682875;29;772;-80
2022/11/18 00:07:20;;;;;;;12.07;10.02;;;;;;;5.81;72.99;99113.59;689219;28;1191;-80
2022/11/18 00:07:41;;;;;;;12.95;10.10;;;;;;;5.73;73.25;99098.81;690586;28;827;-80
2022/11/18 00:08:06;;;;;;;13.07;10.43;;;;;;;5.80;72.95;99106.66;687924;28;1139;-82
2022/11/18 00:08:27;;;;;;;13.63;10.60;;;;;;;5.73;73.19;99097.91;682769;28;2231;-82
2022/11/18 00:08:48;;;;;;;14.20;11.05;;;;;;;5.73;73.17;99093.63;685463;28;1138;-82
2022/11/18 00:09:14;;;;;;;15.50;11.40;;;;;;;5.77;73.16;99099.72;685194;28;1257;-82
2022/11/18 00:09:35;;;;;;;14.93;11.05;;;;;;;5.74;73.30;99103.13;688066;28;1328;-83
2022/11/18 00:09:55;;;;;;;13.47;10.53;;;;;;;5.75;73.36;99102.28;687701;28;884;-82
2022/11/18 00:10:16;;;;;;;12.63;10.10;;;;;;;5.80;72.97;99106.66;687986;28;1169;-82
2022/11/18 00:10:38;;;;;;;12.20;10.30;;;;;;;5.85;72.97;99108.53;688301;28;881;-82
2022/11/18 00:11:04;;;;;;;13.18;10.70;;;;;;;5.81;73.09;99098.06;690366;28;1406;-82
2022/11/18 00:14:17;;;;;;;13.80;10.65;;;;;;;5.84;72.60;99105.91;692129;28;1716;-82
2022/11/18 00:14:38;;;;;;;15.88;10.77;;;;;;;5.89;72.83;99114.63;685479;28;1001;-82
2022/11/18 00:14:58;;;;;;;16.88;11.10;;;;;;;5.86;72.96;99109.38;682476;29;1136;-82
2022/11/18 00:15:19;;;;;;;15.60;10.90;;;;;;;5.85;72.81;99112.81;682641;28;1183;-82
2022/11/18 00:15:40;;;;;;;13.10;10.63;;;;;;;5.92;72.29;99119.88;685359;28;1075;-82
2022/11/18 00:16:05;;;;;;;11.85;10.30;;;;;;;5.84;72.39;99101.59;682611;29;1178;-82
2022/11/18 00:16:26;;;;;;;12.27;10.48;;;;;;;5.87;72.39;99111.13;684340;28;1800;-82
2022/11/18 00:17:00;;;;;;;12.80;10.30;;;;;;;5.92;72.40;99112.09;680162;28;1240;-82
2022/11/18 00:17:21;;;;;;;13.10;10.68;;;;;;;5.91;72.66;99112.94;686862;28;1218;-82
2022/11/18 00:17:42;;;;;;;14.23;10.90;;;;;;;5.87;72.34;99108.53;685006;28;1032;-82
2022/11/18 00:18:02;;;;;;;14.50;10.70;;;;;;;5.85;72.68;99102.47;682413;28;1045;-83
2022/11/18 00:18:23;;;;;;;13.82;11.00;;;;;;;5.82;72.41;99103.28;684569;28;1310;-83
2022/11/18 00:18:43;;;;;;;12.73;10.65;;;;;;;5.84;72.49;99103.31;685457;28;1476;-82
2022/11/18 00:19:04;;;;;;;12.67;10.73;;;;;;;5.82;72.54;99100.69;690127;28;1151;-82
2022/11/18 00:19:58;;;;;;;12.77;10.50;;;;;;;5.94;72.37;99123.34;687843;28;1266;-82
2022/11/18 00:20:19;;;;;;;12.73;11.32;;;;;;;5.92;72.32;99119.88;686417;28;1245;-82
2022/11/18 00:20:40;;;;;;;12.47;11.27;;;;;;;5.85;72.29;99107.66;685493;28;1466;-83
2022/11/18 00:21:05;;;;;;;12.05;10.85;;;;;;;5.92;72.61;99113.81;688003;28;1083;-83
2022/11/18 00:21:26;;;;;;;13.10;10.40;;;;;;;5.89;72.77;99112.03;690742;28;1271;-83
2022/11/18 00:21:47;;;;;;;13.13;9.93;;;;;;;5.86;72.12;99110.28;690927;28;941;-82
2022/11/18 00:22:11;;;;;;;12.48;9.85;;;;;;;5.84;72.09;99108.50;689974;28;1060;-83
2022/11/18 00:22:31;;;;;;;12.02;10.02;;;;;;;5.82;72.33;99116.22;689315;28;768;-82
2022/11/18 00:22:52;;;;;;;11.77;9.87;;;;;;;5.78;72.33;99110.94;682683;29;894;-82
2022/11/18 00:23:13;;;;;;;12.65;9.73;;;;;;;5.80;72.37;99114.44;684395;28;1298;-82
2022/11/18 00:23:34;;;;;;;12.67;10.03;;;;;;;5.87;72.49;99116.31;690991;28;748;-82
2022/11/18 00:23:54;;;;;;;12.85;10.50;;;;;;;5.81;72.78;99105.81;693347;28;1216;-83
2022/11/18 00:24:15;;;;;;;13.33;10.87;;;;;;;5.84;72.58;99116.25;689144;28;1448;-82
2022/11/18 00:24:36;;;;;;;12.57;10.60;;;;;;;5.79;72.76;99115.28;685516;28;860;-83
2022/11/18 00:24:56;;;;;;;12.63;10.50;;;;;;;5.74;72.55;99103.13;685424;28;1168;-82
2022/11/18 00:25:17;;;;;;;13.87;10.50;;;;;;;5.83;72.37;99119.69;686763;28;1238;-82
2022/11/18 00:25:37;;;;;;;13.93;10.13;;;;;;;5.79;72.55;99107.50;684406;28;1217;-83
2022/11/18 00:26:05;;;;;;;14.10;10.05;;;;;;;5.77;72.99;99111.78;682538;29;1063;-82
2022/11/18 00:26:26;;;;;;;12.25;10.00;;;;;;;5.77;72.32;99104.03;685439;28;1265;-82
2022/11/18 00:26:47;;;;;;;12.30;9.80;;;;;;;5.74;72.66;99102.25;684146;28;990;-82
2022/11/18 00:27:08;;;;;;;12.18;10.10;;;;;;;5.75;72.65;99120.41;683792;28;1215;-82
2022/11/18 00:27:32;;;;;;;12.93;10.20;;;;;;;5.71;72.78;99094.44;685492;28;765;-82
2022/11/18 00:27:53;;;;;;;14.43;10.48;;;;;;;5.81;72.57;99122.25;687993;28;1295;-82
2022/11/18 00:28:14;;;;;;;14.02;9.85;;;;;;;5.72;72.83;99111.69;686210;28;1309;-82
2022/11/18 00:28:35;;;;;;;13.40;9.65;;;;;;;5.73;72.41;99116.91;685558;28;1265;-83
2022/11/18 00:28:55;;;;;;;11.27;9.30;;;;;;;5.71;72.47;99110.81;687967;28;1174;-82
2022/11/18 00:29:16;;;;;;;11.53;9.53;;;;;;;5.75;72.87;99117.81;687802;28;1372;-82
2022/11/18 00:29:36;;;;;;;11.82;9.35;;;;;;;5.79;72.57;99123.03;682605;29;848;-82
2022/11/18 00:29:57;;;;;;;11.55;9.25;;;;;;;5.81;72.70;99131.69;682293;29;1175;-82
2022/11/18 00:30:18;;;;;;;12.30;9.50;;;;;;;5.75;72.31;99115.22;686986;28;1190;-82
2022/11/18 00:30:38;;;;;;;10.80;9.40;;;;;;;5.70;72.76;99109.06;688483;28;1292;-82
2022/11/18 00:31:10;;;;;;;11.55;9.82;;;;;;;5.79;72.70;99125.63;687891;28;1225;-82
2022/11/18 00:31:30;;;;;;;11.55;9.90;;;;;;;5.77;72.79;99124.72;682805;29;803;-82
2022/11/18 00:31:51;;;;;;;13.00;9.80;;;;;;;5.68;72.48;99104.69;680187;29;879;-82
2022/11/18 00:32:11;;;;;;;12.60;9.55;;;;;;;5.71;73.06;99112.53;683886;28;1366;-82
2022/11/18 00:32:32;;;;;;;13.53;9.60;;;;;;;5.75;73.13;99119.50;685408;28;850;-83
2022/11/18 00:32:53;;;;;;;11.80;9.65;;;;;;;5.71;72.83;99116.00;685414;28;1059;-82
2022/11/18 00:33:13;;;;;;;11.50;9.87;;;;;;;5.74;72.89;99125.53;685166;28;1918;-82
2022/11/18 00:33:35;;;;;;;11.10;9.90;;;;;;;5.70;72.62;99114.25;683079;28;705;-83
2022/11/18 00:33:56;;;;;;;10.95;9.75;;;;;;;5.71;72.54;99115.13;685639;28;960;-83
2022/11/18 00:34:17;;;;;;;11.98;9.55;;;;;;;5.67;72.57;99113.31;687154;28;1230;-82
2022/11/18 00:34:38;;;;;;;12.23;9.60;;;;;;;5.71;72.77;99120.31;688864;28;1788;-82
2022/11/18 00:34:58;;;;;;;13.15;9.38;;;;;;;5.68;72.66;99115.94;687837;28;1086;-83
2022/11/18 00:35:19;;;;;;;11.03;8.97;;;;;;;5.79;72.82;99134.28;687051;28;1151;-83
2022/11/18 00:35:39;;;;;;;11.68;9.25;;;;;;;5.69;72.59;99112.50;685842;28;866;-82
2022/11/18 00:36:00;;;;;;;10.98;9.27;;;;;;;5.78;72.84;99129.06;685420;28;1891;-82
2022/11/18 00:36:20;;;;;;;11.70;9.27;;;;;;;5.72;72.71;99125.50;688147;28;1344;-83
2022/11/18 00:36:42;;;;;;;11.50;8.95;;;;;;;5.70;73.02;99118.56;688122;28;1144;-83
2022/11/18 00:37:03;;;;;;;11.73;8.90;;;;;;;5.71;72.42;99121.16;683639;28;1128;-83
2022/11/18 00:37:23;;;;;;;11.93;9.20;;;;;;;5.74;73.05;99128.13;687740;28;1349;-83
2022/11/18 00:37:44;;;;;;;11.73;9.20;;;;;;;5.67;73.34;99109.03;687483;28;863;-83
2022/11/18 00:38:05;;;;;;;13.07;9.60;;;;;;;5.77;72.98;99122.16;687862;28;1160;-82
2022/11/18 00:38:25;;;;;;;13.50;9.40;;;;;;;5.68;73.04;99110.75;687962;28;1278;-82
2022/11/18 00:38:46;;;;;;;13.87;9.30;;;;;;;5.68;73.27;99105.59;688509;28;1138;-82
2022/11/18 00:39:07;;;;;;;12.30;8.73;;;;;;;5.73;72.81;99116.91;685354;28;1222;-82
2022/11/18 00:39:27;;;;;;;10.48;8.38;;;;;;;5.77;72.92;99129.91;687575;28;850;-82
2022/11/18 00:39:48;;;;;;;10.32;8.27;;;;;;;5.77;73.22;99127.31;687911;28;823;-83
2022/11/18 00:40:09;;;;;;;11.77;8.60;;;;;;;5.72;73.27;99124.63;688269;28;1241;-82
2022/11/18 00:40:30;;;;;;;12.45;8.90;;;;;;;5.77;73.42;99124.72;688167;28;900;-82
2022/11/18 00:41:07;;;;;;;12.23;8.95;;;;;;;5.79;73.34;99126.53;685389;28;1297;-82
2022/11/18 00:42:49;;;;;;;11.23;8.43;;;;;;;5.73;73.10;99116.91;685221;28;927;-82
2022/11/18 00:42:51;;;;;;;10.40;8.23;;;;;;;5.73;73.05;99116.91;687610;28;1361;-82
2022/11/18 00:43:11;;;;;;;9.20;7.88;;;;;;;5.71;73.32;99110.81;686214;28;2006;-82
2022/11/18 00:43:32;;;;;;;9.50;8.07;;;;;;;5.79;73.29;99123.03;685231;28;2496;-83
2022/11/18 00:43:53;;;;;;;9.70;7.90;;;;;;;5.77;73.49;99123.00;685188;28;1179;-82
2022/11/18 00:44:13;;;;;;;12.15;8.25;;;;;;;5.77;72.89;99119.56;685231;28;1214;-83
2022/11/18 00:44:34;;;;;;;11.90;8.10;;;;;;;5.76;72.90;99113.50;685267;28;1762;-83
2022/11/18 00:44:55;;;;;;;10.40;7.70;;;;;;;5.85;73.08;99125.75;688048;28;1148;-83
2022/11/18 00:45:16;;;;;;;9.15;7.60;;;;;;;5.83;72.94;99120.53;688797;28;1112;-82
2022/11/18 00:45:36;;;;;;;9.27;7.40;;;;;;;5.87;73.44;99131.84;685339;28;1245;-82
2022/11/18 00:45:57;;;;;;;10.45;7.75;;;;;;;5.84;72.97;99111.94;685321;28;1264;-82
2022/11/18 00:46:18;;;;;;;9.65;7.85;;;;;;;5.90;73.39;99121.56;687982;28;1134;-82
2022/11/18 00:46:38;;;;;;;9.70;8.00;;;;;;;5.94;72.70;99118.19;690873;28;831;-82
2022/11/18 00:46:59;;;;;;;9.45;7.97;;;;;;;5.94;72.76;99123.34;687842;28;957;-83
2022/11/18 00:47:19;;;;;;;9.55;7.88;;;;;;;5.97;72.45;99128.63;686379;28;1235;-82
2022/11/18 00:47:40;;;;;;;9.03;7.90;;;;;;;5.96;72.78;99121.66;685819;28;1597;-83
2022/11/18 00:48:01;;;;;;;9.20;8.07;;;;;;;5.99;72.41;99124.34;687923;28;1105;-82
2022/11/18 00:48:22;;;;;;;9.10;8.20;;;;;;;5.98;72.70;99116.53;687496;28;1150;-82
2022/11/18 00:48:43;;;;;;;8.80;7.85;;;;;;;6.02;72.78;99121.78;688172;28;803;-82
2022/11/18 00:49:04;;;;;;;9.17;7.90;;;;;;;6.03;72.65;99122.69;687857;28;1048;-83
2022/11/18 00:49:24;;;;;;;10.48;8.15;;;;;;;6.01;72.54;99112.28;685595;28;1331;-82
2022/11/18 00:49:45;;;;;;;11.05;8.65;;;;;;;6.03;72.47;99123.53;682511;29;1157;-82
2022/11/18 00:50:06;;;;;;;11.80;8.70;;;;;;;6.03;72.61;99122.69;684865;28;1098;-82
2022/11/18 00:50:26;;;;;;;12.05;8.50;;;;;;;6.08;72.79;99112.41;685339;28;1104;-83
2022/11/18 00:50:48;;;;;;;11.35;8.15;;;;;;;6.09;72.63;99122.81;688078;28;815;-82
2022/11/18 00:51:14;;;;;;;11.00;8.30;;;;;;;6.15;72.44;99127.22;683347;28;1294;-83
2022/11/18 00:51:34;;;;;;;10.00;7.90;;;;;;;6.09;72.41;99116.75;687030;28;1820;-82
2022/11/18 00:51:55;;;;;;;11.00;8.10;;;;;;;6.15;72.34;99127.22;685287;28;1139;-83
2022/11/18 00:52:16;;;;;;;11.63;8.23;;;;;;;6.15;72.80;99122.91;685174;28;1214;-83
2022/11/18 00:52:36;;;;;;;11.85;8.75;;;;;;;6.14;72.57;99121.16;685417;28;1159;-82
2022/11/18 00:52:57;;;;;;;11.30;8.57;;;;;;;6.13;72.73;99118.53;688078;28;1056;-82
2022/11/18 00:53:19;;;;;;;10.82;8.15;;;;;;;6.21;72.58;99132.53;689321;28;1903;-82
2022/11/18 00:53:40;;;;;;;8.68;7.78;;;;;;;6.22;72.60;99133.41;688105;28;1931;-83
2022/11/18 00:54:02;;;;;;;9.43;7.93;;;;;;;6.15;72.56;99116.88;685153;28;1136;-82
2022/11/18 00:54:22;;;;;;;9.38;8.35;;;;;;;6.17;72.71;99122.94;685255;28;1305;-83
2022/11/18 00:54:43;;;;;;;10.70;8.52;;;;;;;6.15;72.49;99115.13;684984;28;1162;-82
2022/11/18 00:55:04;;;;;;;10.40;8.20;;;;;;;6.23;72.51;99132.53;682482;28;1230;-82
2022/11/18 00:55:24;;;;;;;11.32;8.13;;;;;;;6.21;72.43;99131.66;685203;28;1380;-82
2022/11/18 00:55:45;;;;;;;11.55;8.10;;;;;;;6.19;72.77;99123.84;685581;28;779;-83
2022/11/18 00:56:06;;;;;;;11.20;8.40;;;;;;;6.16;72.46;99124.66;690485;28;1055;-82
2022/11/18 00:56:27;;;;;;;9.40;8.07;;;;;;;6.16;72.31;99116.03;687688;28;1123;-82
2022/11/18 00:56:47;;;;;;;9.35;8.38;;;;;;;6.25;72.27;99130.84;688077;28;1309;-83
2022/11/18 00:57:08;;;;;;;10.07;8.60;;;;;;;6.21;72.57;99127.34;683086;28;1363;-82
2022/11/18 00:57:29;;;;;;;11.38;9.05;;;;;;;6.23;72.45;99129.94;687829;28;1577;-83
2022/11/18 00:57:49;;;;;;;11.68;8.80;;;;;;;6.24;72.57;99127.41;687378;28;803;-83
2022/11/18 00:58:13;;;;;;;10.90;8.80;;;;;;;6.24;72.56;99127.41;682396;28;1369;-83
2022/11/18 00:58:34;;;;;;;10.60;8.73;;;;;;;6.27;72.50;99127.44;685330;28;1339;-82
2022/11/18 00:58:55;;;;;;;9.77;8.77;;;;;;;6.28;72.44;99115.38;685252;28;1208;-83
2022/11/18 00:59:15;;;;;;;9.90;8.90;;;;;;;6.30;72.86;99132.72;686380;28;1469;-83
2022/11/18 00:59:36;;;;;;;9.65;8.65;;;;;;;6.34;72.61;99133.63;685123;28;753;-82
2022/11/18 00:59:56;;;;;;;11.27;9.10;;;;;;;6.39;72.41;99146.69;687773;28;1172;-82
2022/11/18 01:00:17;;;;;;;11.77;9.25;;;;;;;6.30;72.28;99122.34;688321;28;1222;-82
2022/11/18 01:00:38;;;;;;;11.82;9.18;;;;;;;6.35;72.45;99130.19;688022;28;1051;-82
2022/11/18 01:00:58;;;;;;;9.88;8.70;;;;;;;6.35;72.55;99129.31;687918;28;1089;-83
2022/11/18 01:01:19;;;;;;;9.80;8.80;;;;;;;6.39;72.98;99131.13;683063;28;1791;-83
2022/11/18 01:01:40;;;;;;;10.50;9.40;;;;;;;6.35;72.83;99124.13;682511;29;1048;-82
2022/11/18 01:02:00;;;;;;;12.70;9.60;;;;;;;6.40;72.53;99128.53;685163;28;1140;-83
2022/11/18 01:02:21;;;;;;;12.80;9.33;;;;;;;6.43;72.25;99127.72;687247;28;1242;-83
2022/11/18 01:02:41;;;;;;;12.32;8.95;;;;;;;6.42;72.28;99129.47;687425;28;1523;-82
2022/11/18 01:03:02;;;;;;;10.63;8.90;;;;;;;6.42;72.48;99129.47;685383;28;1128;-82
2022/11/18 01:03:24;;;;;;;9.70;8.52;;;;;;;6.51;72.14;99146.03;688111;28;1272;-82
2022/11/18 01:03:45;;;;;;;10.70;8.48;;;;;;;6.48;72.53;99131.28;688028;28;1093;-83
2022/11/18 01:04:06;;;;;;;11.43;8.60;;;;;;;6.50;72.03;99129.59;685176;28;1088;-83
2022/11/18 01:04:26;;;;;;;12.27;8.90;;;;;;;6.45;72.45;99118.28;682787;28;816;-82
2022/11/18 01:04:47;;;;;;;12.32;9.10;;;;;;;6.49;72.49;99135.63;688034;28;819;-82
2022/11/18 01:05:08;;;;;;;12.13;9.00;;;;;;;6.46;72.12;99133.00;687564;28;1316;-82
2022/11/18 01:05:28;;;;;;;12.13;9.10;;;;;;;6.56;72.60;99149.56;685385;28;950;-83
2022/11/18 01:05:49;;;;;;;10.88;9.00;;;;;;;6.50;72.46;99128.75;685299;28;1112;-82
2022/11/18 01:06:09;;;;;;;10.00;8.80;;;;;;;6.46;72.35;99117.44;682279;29;1147;-82
2022/11/18 01:06:30;;;;;;;9.73;8.70;;;;;;;6.52;72.27;99130.50;682807;29;784;-82
2022/11/18 01:06:50;;;;;;;9.73;8.73;;;;;;;6.50;72.39;99124.41;682796;29;792;-82
2022/11/18 01:07:11;;;;;;;9.60;8.60;;;;;;;6.52;72.66;99127.91;682561;29;1017;-82
2022/11/18 01:07:32;;;;;;;11.40;8.83;;;;;;;6.52;72.40;99125.31;688008;28;1259;-83
2022/11/18 01:07:52;;;;;;;11.98;9.20;;;;;;;6.52;72.47;99127.91;687681;28;1657;-82
2022/11/18 01:08:14;;;;;;;11.95;9.27;;;;;;;6.53;72.75;99128.78;686010;28;1170;-82
2022/11/18 01:08:34;;;;;;;11.10;8.98;;;;;;;6.52;72.26;99127.91;687907;28;1223;-82
2022/11/18 01:08:55;;;;;;;10.48;8.40;;;;;;;6.57;72.45;99133.19;687956;28;940;-82
2022/11/18 01:09:15;;;;;;;10.37;8.53;;;;;;;6.51;72.38;99135.66;691838;28;1264;-82
2022/11/18 01:09:36;;;;;;;9.60;8.48;;;;;;;6.52;72.29;99122.72;687657;28;908;-83
2022/11/18 01:09:57;;;;;;;10.60;8.90;;;;;;;6.58;72.70;99134.94;687994;28;1032;-83
2022/11/18 01:10:18;;;;;;;10.60;8.60;;;;;;;6.56;72.50;99129.72;691078;28;1268;-83
2022/11/18 01:10:39;;;;;;;10.67;8.90;;;;;;;6.56;72.10;99127.13;690623;28;1124;-82
2022/11/18 01:13:18;;;;;;;10.27;8.40;;;;;;;6.65;72.25;99143.69;688671;28;1151;-83
2022/11/18 01:13:37;;;;;;;10.32;7.85;;;;;;;6.64;72.68;99127.25;690616;28;1238;-82
2022/11/18 01:13:58;;;;;;;9.02;7.90;;;;;;;6.65;72.31;99131.59;687802;28;1216;-82
2022/11/18 01:14:59;;;;;;;8.63;7.73;;;;;;;6.76;72.58;99142.16;690935;28;1281;-83
2022/11/18 01:15:19;;;;;;;9.45;8.55;;;;;;;6.67;71.98;99136.78;691405;28;1486;-82
2022/11/18 01:15:42;;;;;;;10.40;8.90;;;;;;;6.67;72.52;99131.59;688106;28;798;-82
2022/11/18 01:16:03;;;;;;;11.27;8.85;;;;;;;6.67;72.28;99129.03;688048;28;1027;-83
2022/11/18 01:16:25;;;;;;;14.70;9.20;;;;;;;6.73;72.67;99141.28;690801;28;823;-82
2022/11/18 01:16:50;;;;;;;13.27;9.30;;;;;;;6.71;72.40;99134.31;688032;28;1288;-83
2022/11/18 01:17:10;;;;;;;14.43;9.70;;;;;;;6.71;71.96;99134.31;684437;28;1234;-82
2022/11/18 01:17:31;;;;;;;12.45;9.52;;;;;;;6.74;72.18;99136.09;685372;28;777;-82
2022/11/18 01:17:52;;;;;;;12.27;9.50;;;;;;;6.74;72.68;99133.50;687893;28;1040;-82
2022/11/18 01:18:13;;;;;;;14.23;9.60;;;;;;;6.70;72.02;99131.69;687315;28;1576;-82
2022/11/18 01:18:33;;;;;;;14.15;9.70;;;;;;;6.70;72.01;99126.50;690669;28;874;-82
2022/11/18 01:18:54;;;;;;;14.10;9.50;;;;;;;6.76;72.27;99141.31;685185;28;1276;-82
2022/11/18 01:19:14;;;;;;;11.40;9.17;;;;;;;6.74;72.36;99132.66;686130;28;1219;-82
2022/11/18 01:19:35;;;;;;;10.93;8.85;;;;;;;6.74;72.28;99132.66;690512;28;846;-82
2022/11/18 01:19:55;;;;;;;10.27;8.90;;;;;;;6.74;72.04;99127.47;687654;28;1057;-82
2022/11/18 01:20:16;;;;;;;10.23;8.80;;;;;;;6.73;72.26;99134.34;689049;28;1268;-82
2022/11/18 01:20:37;;;;;;;10.20;9.00;;;;;;;6.75;72.12;99127.47;687479;28;842;-83
2022/11/18 01:21:02;;;;;;;10.27;8.80;;;;;;;6.76;72.26;99136.97;685173;28;1176;-81
2022/11/18 01:21:23;;;;;;;11.20;8.88;;;;;;;6.72;71.97;99130.00;687030;28;1257;-80
2022/11/18 01:21:44;;;;;;;12.07;8.90;;;;;;;6.76;72.22;99142.16;687984;28;1123;-80
2022/11/18 01:22:04;;;;;;;12.00;9.20;;;;;;;6.79;72.34;99147.44;687707;28;1265;-80
2022/11/18 01:22:25;;;;;;;10.80;8.73;;;;;;;6.72;71.91;99130.00;688086;28;816;-80
2022/11/18 01:22:45;;;;;;;9.80;8.80;;;;;;;6.74;72.30;99130.91;690711;28;876;-80
2022/11/18 01:23:06;;;;;;;10.27;9.13;;;;;;;6.74;72.02;99132.66;686798;28;1117;-80
2022/11/18 01:23:27;;;;;;;11.27;9.57;;;;;;;6.82;71.80;99141.44;688103;28;717;-80
2022/11/18 01:23:47;;;;;;;11.48;9.20;;;;;;;6.81;72.23;99135.34;690977;28;770;-80
2022/11/18 01:24:08;;;;;;;11.18;8.73;;;;;;;6.80;72.42;99137.91;690049;28;1148;-80
2022/11/18 01:24:31;;;;;;;11.53;9.10;;;;;;;6.76;71.90;99139.56;687807;28;1092;-80
2022/11/18 01:24:51;;;;;;;11.80;9.50;;;;;;;6.66;72.26;99129.88;687806;28;783;-80
2022/11/18 01:25:12;;;;;;;11.55;9.70;;;;;;;6.68;72.63;99138.53;687508;28;1260;-80
2022/11/18 01:25:43;;;;;;;10.57;9.43;;;;;;;6.69;72.96;99140.31;687771;28;1279;-80
2022/11/18 01:26:08;;;;;;;11.50;9.10;;;;;;;6.63;72.78;99129.81;687656;28;1176;-79
2022/11/18 01:26:29;;;;;;;10.63;8.85;;;;;;;6.63;72.49;99135.88;685277;28;922;-79
2022/11/18 01:26:50;;;;;;;11.27;9.20;;;;;;;6.65;72.81;99134.19;685276;28;921;-80
2022/11/18 01:27:10;;;;;;;11.30;9.60;;;;;;;6.66;72.62;99130.75;689966;28;1069;-80
2022/11/18 01:27:31;;;;;;;11.20;9.50;;;;;;;6.66;72.94;99132.47;687748;28;1195;-79
2022/11/18 01:27:52;;;;;;;10.73;9.40;;;;;;;6.61;72.63;99126.31;688053;28;906;-79
2022/11/18 01:28:13;;;;;;;10.68;9.40;;;;;;;6.71;72.97;99143.81;687882;28;1122;-80
2022/11/18 01:28:34;;;;;;;12.30;9.40;;;;;;;6.69;72.58;99137.72;688028;28;783;-80
2022/11/18 01:28:56;;;;;;;11.73;8.75;;;;;;;6.69;72.88;99141.16;684504;28;1076;-80
2022/11/18 01:29:17;;;;;;;11.82;8.68;;;;;;;6.68;72.62;99143.72;686356;28;1269;-80
2022/11/18 01:29:37;;;;;;;11.17;8.90;;;;;;;6.60;72.34;99128.06;687286;28;1508;-80
2022/11/18 01:29:58;;;;;;;10.63;9.25;;;;;;;6.63;72.73;99135.88;687357;28;1563;-80
2022/11/18 01:30:18;;;;;;;10.60;9.38;;;;;;;6.60;72.61;99124.56;686916;28;1297;-80
2022/11/18 01:30:40;;;;;;;10.17;9.07;;;;;;;6.62;73.02;99139.31;685363;28;1170;-80
2022/11/18 01:31:06;;;;;;;9.68;8.68;;;;;;;6.69;72.90;99155.88;682364;29;1189;-80
2022/11/18 01:31:27;;;;;;;9.73;8.82;;;;;;;6.58;72.71;99134.94;680051;29;829;-80
2022/11/18 01:31:47;;;;;;;9.73;8.80;;;;;;;6.61;72.87;99140.16;685361;28;1066;-80
2022/11/18 01:32:08;;;;;;;9.77;8.77;;;;;;;6.60;72.65;99134.94;687690;28;1265;-79
2022/11/18 01:32:28;;;;;;;13.40;9.10;;;;;;;6.56;72.99;99132.31;688010;28;1095;-80
2022/11/18 01:32:49;;;;;;;15.13;9.63;;;;;;;6.63;73.19;99142.78;688001;28;802;-80
2022/11/18 01:33:10;;;;;;;15.53;9.80;;;;;;;6.66;72.81;99155.78;687775;28;1106;-80
2022/11/18 01:33:31;;;;;;;11.90;9.52;;;;;;;6.60;72.72;99150.50;687932;28;1347;-80
2022/11/18 01:33:51;;;;;;;10.73;9.30;;;;;;;6.61;72.76;99147.03;688030;28;767;-80
2022/11/18 01:34:12;;;;;;;10.73;9.38;;;;;;;6.57;73.12;99144.41;682342;28;1297;-80
2022/11/18 01:34:33;;;;;;;10.43;9.32;;;;;;;6.54;72.83;99141.78;688112;28;771;-80
2022/11/18 01:34:53;;;;;;;10.80;9.47;;;;;;;6.53;72.82;99144.34;685011;28;1132;-80
2022/11/18 01:35:14;;;;;;;11.45;9.50;;;;;;;6.51;72.85;99141.69;682346;29;1223;-79
2022/11/18 01:35:36;;;;;;;11.52;9.80;;;;;;;6.53;73.00;99149.50;682683;29;819;-80
2022/11/18 01:35:57;;;;;;;10.80;9.70;;;;;;;6.49;72.73;99137.34;685039;28;1243;-80
2022/11/18 01:36:20;;;;;;;11.53;10.33;;;;;;;6.56;72.89;99147.84;686670;28;1195;-80
2022/11/18 01:36:41;;;;;;;11.70;10.07;;;;;;;6.51;72.73;99152.06;690732;28;898;-80
2022/11/18 01:37:02;;;;;;;11.25;9.88;;;;;;;6.50;72.84;99145.16;688184;28;1157;-81
2022/11/18 01:37:22;;;;;;;11.48;9.75;;;;;;;6.45;72.62;99139.03;685339;28;1317;-80
2022/11/18 01:37:43;;;;;;;11.90;10.10;;;;;;;6.46;72.74;99147.66;685240;28;1026;-80
2022/11/18 01:38:04;;;;;;;12.38;10.40;;;;;;;6.49;73.00;99151.19;685052;28;1270;-80
2022/11/18 01:38:26;;;;;;;12.18;10.55;;;;;;;6.49;72.70;99150.28;682589;29;1205;-80
2022/11/18 01:38:48;;;;;;;11.60;10.32;;;;;;;6.45;73.00;99149.38;682557;28;1295;-79
2022/11/18 01:39:08;;;;;;;12.00;10.20;;;;;;;6.51;72.55;99151.22;687964;28;1313;-80
2022/11/18 01:39:30;;;;;;;11.93;10.40;;;;;;;6.40;72.56;99144.09;687894;28;748;-80
2022/11/18 01:39:50;;;;;;;11.70;10.40;;;;;;;6.48;73.25;99156.31;687810;28;756;-79
2022/11/18 01:40:11;;;;;;;13.40;10.90;;;;;;;6.42;72.74;99146.72;687770;28;1201;-80
2022/11/18 01:40:34;;;;;;;13.02;10.20;;;;;;;6.48;72.94;99153.72;688712;28;815;-80
2022/11/18 01:40:55;;;;;;;12.25;9.73;;;;;;;6.42;73.22;99146.72;688086;28;1040;-80
2022/11/18 01:41:17;;;;;;;10.90;9.50;;;;;;;6.48;73.09;99162.38;687408;28;1373;-80
2022/11/18 01:41:38;;;;;;;12.32;9.88;;;;;;;6.40;72.52;99144.09;685638;28;1457;-80
2022/11/18 01:41:58;;;;;;;12.07;10.13;;;;;;;6.46;72.92;99152.84;685488;28;1140;-79
2022/11/18 01:42:19;;;;;;;12.38;10.23;;;;;;;6.39;72.71;99141.50;687201;28;1170;-81
2022/11/18 01:42:39;;;;;;;13.13;10.47;;;;;;;6.49;72.96;99158.06;686685;28;1283;-80
2022/11/18 01:43:00;;;;;;;14.20;10.60;;;;;;;6.46;73.34;99152.84;685754;28;1630;-80
2022/11/18 01:43:22;;;;;;;12.55;10.10;;;;;;;6.39;72.88;99146.69;686589;28;1462;-80
2022/11/18 01:44:02;;;;;;;11.98;10.15;;;;;;;6.41;72.96;99150.16;686201;28;846;-80
2022/11/18 01:44:59;;;;;;;12.55;10.40;;;;;;;6.46;72.90;99164.09;690319;28;1372;-79
2022/11/18 01:45:31;;;;;;;10.57;9.02;;;;;;;6.49;72.82;99161.53;691634;28;1127;-80
2022/11/18 01:45:53;;;;;;;11.30;8.88;;;;;;;6.46;72.80;99156.31;693513;28;1256;-79
2022/11/18 01:46:13;;;;;;;11.10;9.20;;;;;;;6.39;72.67;99147.53;688029;28;1217;-80
2022/11/18 01:46:34;;;;;;;10.10;9.07;;;;;;;6.38;72.91;99157.88;682764;28;941;-80
2022/11/18 01:46:54;;;;;;;9.77;8.88;;;;;;;6.36;73.05;99159.56;685206;28;1324;-81
2022/11/18 01:47:15;;;;;;;9.30;8.40;;;;;;;6.40;72.71;99156.19;686456;28;1151;-79
2022/11/18 01:47:42;;;;;;;8.90;8.00;;;;;;;6.38;73.04;99160.47;683571;28;1503;-79
2022/11/18 01:48:13;;;;;;;9.02;8.13;;;;;;;6.32;72.51;99152.59;682291;28;1126;-79
2022/11/18 01:48:34;;;;;;;9.48;8.48;;;;;;;6.36;72.75;99163.03;685316;28;1091;-80
2022/11/18 01:49:01;;;;;;;9.48;8.48;;;;;;;6.37;72.71;99163.88;687500;28;2264;-79
2022/11/18 01:49:22;;;;;;;9.65;8.57;;;;;;;6.34;72.91;99159.53;685858;28;1226;-79
2022/11/18 01:49:43;;;;;;;9.77;8.77;;;;;;;6.35;73.07;99166.47;687770;28;736;-79
2022/11/18 01:50:05;;;;;;;10.45;8.98;;;;;;;6.26;72.76;99154.19;687531;28;1187;-80
2022/11/18 01:50:27;;;;;;;10.10;9.07;;;;;;;6.27;72.92;99158.53;690915;28;1359;-80
2022/11/18 01:50:56;;;;;;;9.70;8.70;;;;;;;6.23;72.71;99151.56;690723;28;1265;-79
2022/11/18 01:51:20;;;;;;;9.50;8.60;;;;;;;6.27;73.35;99158.53;687675;28;1217;-79
2022/11/18 01:51:48;;;;;;;9.27;8.38;;;;;;;6.31;72.92;99164.66;685312;28;954;-80